Архив погоды в Лагани

Метеограмма Лагань
Вторник, 24 Апреля
Время местн. Темп Ветер Видим Явления Облачность нижн/средн/верх Атм. давл. Влжн Точка росы ВНГО R Сост. почвы Tg s
Напр Скр Прв ур.ст ур.м изм
09:00 +10.8° З,С-З 4 - 20 км - переменная облачность 768 765 +1.4 42% -1.7° 1.5 км - - - -
06:00 +4.2° З,С-З 1 - 10 км - облачно с прояснениями 766 764 +1.4 88% +2.4° 1 км - Сухая (без трещин) - -
03:00 +5.7° С,С-З 3 - 10 км - ясно 765 763 +1.6 82% +2.9° более 2.5 км - - - -
00:00 +6.9° З,С-З 3 - 10 км - переменная облачность 763 761 +0.7 82% +4.1° - - - - -
Понедельник, 23 Апреля
Время местн. Темп Ветер Видим Явления Облачность нижн/средн/верх Атм. давл. Влжн Точка росы ВНГО R Сост. почвы Tg s
Напр Скр Прв ур.ст ур.м изм
21:00 +10.7° З 3 - 20 км - переменная облачность 762 760 +1.9 58% +2.8° более 2.5 км - - - -
18:00 +14.3° З,С-З 5 - 20 км - облачно с прояснениями 761 759 +1.4 42% +1.7° - - - - -
15:00 +18.5° З 9 15 20 км - облачно с прояснениями 759 757 -0.3 30% +0.7° 1.5 км - - - -
12:00 +17.8° З 8 12 20 км - облачно с прояснениями 760 758 -0.1 32% +0.9° 1.5 км - - - -
09:00 +15.6° З 7 12 20 км - переменная облачность 760 758 +0.7 44% +3.3° - - - - -
06:00 +9.3° З,Ю-З 6 - 20 км - переменная облачность 759 757 +0.6 71% +4.4° более 2.5 км 0 Сухая (без трещин) +7° -
03:00 +10° Ю-З 6 - 20 км - переменная облачность 758 756 -0.2 78% +6.3° - - - - -
00:00 +10.4° З 4 11 20 км - преимущественно облачно 759 757 +0.2 78% +6.7° более 2.5 км - - - -
Воскресенье, 22 Апреля
Время местн. Темп Ветер Видим Явления Облачность нижн/средн/верх Атм. давл. Влжн Точка росы ВНГО R Сост. почвы Tg s
Напр Скр Прв ур.ст ур.м изм
21:00 +13° Ю,Ю-З 5 - 20 км небо без изменений {ливневые осадки} облачно 758 756 +0.3 76% +8.8° 1 км - - - -
18:00 +13.4° З 7 16 20 км - облачно 758 756 +1.1 73% +8.6° 1 км 0 - - -
15:00 +19.9° З,Ю-З 8 11 20 км - преимущественно облачно 757 755 -1 32% +2.9° 1 км - - - -
12:00 +15.7° Ю-З 9 14 20 км - преимущественно облачно 758 757 -1.4 55% +6.8° 1 км - - - -
09:00 +15.7° Ю-З 8 11 20 км - преимущественно облачно 759 757 -1 55% +6.8° - - - - -
06:00 +5.9° Ю,Ю-З 3 - 10 км - переменная облачность 760 758 -0.6 91% +4.6° более 2.5 км 0 Влажная (без луж) +3° -
03:00 +4.4° Ю-З 2 - 10 км - ясно 761 759 -0.8 93% +3.4° более 2.5 км - - - -
00:00 +5.4° З 1 - 10 км - ясно 762 760 -0.2 84% +3° более 2.5 км - - - -
Суббота, 21 Апреля
Время местн. Темп Ветер Видим Явления Облачность нижн/средн/верх Атм. давл. Влжн Точка росы ВНГО R Сост. почвы Tg s
Напр Скр Прв ур.ст ур.м изм
21:00 +8.5° З 2 - 20 км - переменная облачность 762 760 +1.1 75% +4.4° более 2.5 км - - - -
18:00 +14.1° З,С-З 3 - 20 км - переменная облачность 761 759 +0.6 57% +5.8° 1.5 км - - - -
15:00 +15.6° С-З 6 13 20 км - облачно с прояснениями 760 758 +0.9 55% +6.6° 1.5 км - - - -
12:00 +14.7° З,С-З 5 - 20 км - облачно с прояснениями 759 757 +0.3 62% +7.5° 1 км - - - -
09:00 +12.3° З 6 10 20 км небо без изменений {ливневые осадки} преимущественно облачно 759 757 +1.1 78% +8.6° 1 км - - - -
06:00 +9.5° З 6 - 10 км ливневый дождь облачно 758 756 +0.5 87% +7.4° 1 км - Влажная (без луж) - -